Time;durP1;ratioP1;P1;durP2;ratioP2;P2;SDS_P1;SDS_P2;PMS_P1;PMS_P2;Temp;Humidity;BMP_temperature;BMP_pressure;BME280_temperature;BME280_humidity;BME280_pressure;Samples;Min_cycle;Max_cycle;Signal;HPM_P1;HPM_P2
2022/12/16 00:01:22;;;;;;;9.25;5.00;;;;;;;-2.80;74.07;99687.66;4796357;29;20050;-80
2022/12/16 00:03:51;;;;;;;12.93;5.85;;;;;;;-2.83;73.46;99694.25;4766021;30;20147;-81
2022/12/16 00:06:18;;;;;;;15.35;6.20;;;;;;;-2.53;73.13;99732.91;4789885;29;20483;-82
2022/12/16 00:08:44;;;;;;;10.23;4.47;;;;;;;-2.54;73.28;99728.66;4746070;29;20039;-84
2022/12/16 00:11:10;;;;;;;14.02;5.68;;;;;;;-2.60;74.05;99723.28;4791889;29;20058;-80
2022/12/16 00:13:39;;;;;;;13.73;5.22;;;;;;;-3.14;73.21;99625.06;4792639;29;20468;-81
2022/12/16 00:16:07;;;;;;;11.07;5.22;;;;;;;-2.63;72.34;99705.31;4798035;29;20050;-81
2022/12/16 00:18:33;;;;;;;12.20;6.43;;;;;;;-2.75;73.11;99698.88;4792779;29;20051;-82
2022/12/16 00:21:00;;;;;;;13.43;6.57;;;;;;;-2.58;73.51;99706.41;4773698;30;20471;-80
2022/12/16 00:23:26;;;;;;;11.60;5.00;;;;;;;-2.42;73.11;99728.28;4788277;29;20127;-81
2022/12/16 00:25:52;;;;;;;14.80;7.03;;;;;;;-2.58;73.23;99701.31;4788239;29;20096;-82
2022/12/16 00:28:50;;;;;;;12.30;5.78;;;;;;;-2.47;73.13;99720.44;4789548;29;20043;-82
2022/12/16 00:31:17;;;;;;;12.85;5.72;;;;;;;-2.36;73.75;99732.78;4772423;30;20525;-80
2022/12/16 00:33:48;;;;;;;16.05;5.65;;;;;;;-2.31;73.57;99708.34;4773575;29;20062;-82
2022/12/16 00:36:13;;;;;;;12.40;5.50;;;;;;;-2.55;73.29;99662.31;4789964;29;20042;-83
2022/12/16 00:38:40;;;;;;;13.13;5.68;;;;;;;-2.45;73.47;99683.16;4773457;29;20510;-81
2022/12/16 00:41:06;;;;;;;9.65;4.57;;;;;;;-2.54;73.63;99652.22;4789677;29;20080;-80
2022/12/16 00:43:32;;;;;;;9.90;4.65;;;;;;;-2.48;73.12;99675.38;4772304;29;20464;-79
2022/12/16 00:45:57;;;;;;;9.23;3.45;;;;;;;-2.44;73.23;99673.84;4787214;29;20080;-83
2022/12/16 00:48:24;;;;;;;22.23;8.52;;;;;;;-2.17;73.03;99703.81;4787801;30;20043;-82
2022/12/16 00:50:52;;;;;;;10.75;4.68;;;;;;;-2.23;73.20;99685.72;4772816;30;20039;-80
2022/12/16 00:53:19;;;;;;;9.02;4.32;;;;;;;-2.28;72.95;99700.81;4789069;29;20399;-81
2022/12/16 00:55:45;;;;;;;9.02;4.43;;;;;;;-2.23;73.57;99688.28;4789157;29;20046;-83
2022/12/16 00:58:11;;;;;;;11.75;5.55;;;;;;;-2.07;73.14;99702.50;4787788;29;20043;-81
2022/12/16 01:00:38;;;;;;;12.43;5.57;;;;;;;-2.34;73.52;99657.25;4788707;29;20540;-82
2022/12/16 01:03:04;;;;;;;14.27;5.95;;;;;;;-2.08;73.36;99708.41;4786809;29;20075;-82
2022/12/16 01:05:30;;;;;;;13.13;5.90;;;;;;;-2.38;73.67;99668.13;4787436;29;20054;-81
2022/12/16 01:07:56;;;;;;;9.73;4.50;;;;;;;-2.26;73.56;99681.34;4787497;29;20043;-81
2022/12/16 01:10:24;;;;;;;10.45;4.90;;;;;;;-2.06;73.44;99699.16;4788593;29;20047;-81
2022/12/16 01:12:51;;;;;;;12.65;5.05;;;;;;;-2.08;72.98;99704.19;4787175;29;20127;-82
2022/12/16 01:15:17;;;;;;;9.80;4.65;;;;;;;-2.09;72.93;99702.44;4794103;29;20120;-81
2022/12/16 01:17:43;;;;;;;8.95;3.97;;;;;;;-2.02;73.49;99701.91;4793449;29;20123;-80
2022/12/16 01:20:10;;;;;;;7.85;3.75;;;;;;;-2.32;73.32;99648.84;4757523;29;20100;-79
2022/12/16 01:22:37;;;;;;;12.02;5.60;;;;;;;-2.00;73.34;99681.53;4786993;29;20059;-83
2022/12/16 01:25:03;;;;;;;11.90;5.15;;;;;;;-2.04;73.90;99679.69;4788510;29;20043;-82
2022/12/16 01:27:29;;;;;;;12.68;5.95;;;;;;;-1.92;73.11;99700.59;4788222;29;20177;-80
2022/12/16 01:29:55;;;;;;;10.90;4.47;;;;;;;-1.89;72.97;99705.81;4786985;30;20141;-82
2022/12/16 01:32:22;;;;;;;9.10;4.88;;;;;;;-1.86;73.53;99699.94;4788576;29;20054;-80
2022/12/16 01:34:53;;;;;;;9.25;3.83;;;;;;;-2.31;73.23;99629.31;4786948;29;20177;-79
2022/12/16 01:37:19;;;;;;;11.10;5.10;;;;;;;-1.79;73.08;99711.25;4787053;29;20074;-81
2022/12/16 01:39:46;;;;;;;14.98;5.85;;;;;;;-1.75;73.57;99708.88;4788122;29;20046;-80
2022/12/16 01:42:13;;;;;;;15.82;6.80;;;;;;;-1.86;73.50;99672.75;4787955;29;20039;-80
2022/12/16 01:44:45;;;;;;;12.85;5.15;;;;;;;-1.64;73.07;99718.66;4788136;29;20043;-82
2022/12/16 01:47:16;;;;;;;;;;;;;;;-1.66;72.85;99708.41;4772138;29;20122;-81
2022/12/16 01:49:49;;;;;;;11.68;4.57;;;;;;;-1.71;73.63;99703.09;4772600;29;20383;-80
2022/12/16 01:52:22;;;;;;;9.07;4.90;;;;;;;-1.61;73.98;99699.22;4787276;29;20096;-80
2022/12/16 01:55:05;;;;;;;9.95;3.75;;;;;;;-1.74;73.50;99668.94;4772250;29;20043;-80
2022/12/16 01:57:40;;;;;;;36.03;7.57;;;;;;;-1.47;73.82;99709.09;4787678;29;20047;-83
2022/12/16 02:00:06;;;;;;;15.90;5.53;;;;;;;-1.67;72.84;99665.84;4777883;29;20050;-80
2022/12/16 02:02:43;;;;;;;4.07;2.47;;;;;;;-1.42;72.93;99711.00;4793890;29;20043;-79
2022/12/16 02:05:20;;;;;;;15.10;5.35;;;;;;;-1.60;73.14;99680.53;4762438;30;20462;-78
2022/12/16 02:08:11;;;;;;;19.08;6.38;;;;;;;-1.69;73.05;99673.41;4762484;30;20048;-80
2022/12/16 02:10:43;;;;;;;11.55;5.05;;;;;;;-1.37;73.68;99726.50;4746832;30;20050;-80
2022/12/16 02:13:34;;;;;;;13.68;5.55;;;;;;;-1.36;73.49;99712.91;4765699;30;20032;-80
2022/12/16 02:16:56;;;;;;;15.65;5.63;;;;;;;-1.37;73.46;99718.84;4765913;30;20032;-79
2022/12/16 02:19:38;;;;;;;30.35;8.48;;;;;;;-1.33;73.76;99714.75;4773341;30;20039;-81
2022/12/16 02:22:22;;;;;;;39.00;9.63;;;;;;;-1.22;73.54;99718.56;4790693;30;20051;-81
2022/12/16 02:25:07;;;;;;;10.13;4.55;;;;;;;-1.23;73.26;99712.59;4760688;30;20088;-82
2022/12/16 02:27:52;;;;;;;24.48;7.47;;;;;;;-1.30;73.81;99690.19;4792590;30;20052;-80
2022/12/16 02:30:43;;;;;;;33.67;7.30;;;;;;;-1.15;73.61;99699.22;4759002;30;20059;-78
2022/12/16 02:33:29;;;;;;;26.95;6.65;;;;;;;-1.12;73.63;99707.00;4757228;30;20071;-81
2022/12/16 02:36:10;;;;;;;9.95;4.32;;;;;;;-1.08;73.52;99711.41;4754492;30;20472;-80
2022/12/16 02:38:57;;;;;;;28.65;8.13;;;;;;;-1.09;74.05;99714.78;4753306;30;20134;-78
2022/12/16 02:41:38;;;;;;;50.42;11.27;;;;;;;-1.02;74.28;99706.53;4739371;30;20125;-77
2022/12/16 02:44:07;;;;;;;16.52;5.93;;;;;;;-1.41;73.50;99648.94;4771971;30;20087;-80
2022/12/16 02:46:54;;;;;;;47.88;9.98;;;;;;;-1.38;73.81;99660.94;4755726;30;20055;-81
2022/12/16 02:49:23;;;;;;;42.88;9.10;;;;;;;-1.03;74.53;99712.44;4770187;30;20101;-82
2022/12/16 02:51:49;;;;;;;12.75;6.15;;;;;;;-1.13;74.21;99695.91;4738157;30;20138;-79
2022/12/16 02:54:17;;;;;;;32.28;6.90;;;;;;;-1.18;74.29;99689.75;4739156;30;20044;-82
2022/12/16 02:56:49;;;;;;;36.97;8.48;;;;;;;-1.00;74.51;99716.78;4754027;30;20075;-81
2022/12/16 02:59:49;;;;;;;22.00;6.18;;;;;;;-1.02;73.90;99724.41;4753693;30;20112;-81
2022/12/16 03:02:25;;;;;;;77.68;14.73;;;;;;;-1.06;74.12;99702.13;4762079;30;20067;-80
2022/12/16 03:04:55;;;;;;;53.97;12.00;;;;;;;-0.97;73.83;99707.53;4786410;29;20103;-78
2022/12/16 03:07:25;;;;;;;26.85;6.95;;;;;;;-1.46;74.59;99630.03;4786209;29;20100;-80
2022/12/16 03:09:53;;;;;;;45.40;10.13;;;;;;;-0.98;74.14;99703.25;4789593;29;20130;-82
2022/12/16 03:12:21;;;;;;;33.08;7.45;;;;;;;-0.88;74.31;99712.09;4777497;29;20049;-80
2022/12/16 03:14:51;;;;;;;32.13;7.18;;;;;;;-0.88;74.75;99713.81;4797054;29;20057;-80
2022/12/16 03:17:20;;;;;;;81.28;16.48;;;;;;;-1.09;74.88;99679.00;4791574;29;20058;-78
2022/12/16 03:19:56;;;;;;;78.93;15.20;;;;;;;-1.19;74.41;99643.72;4775463;29;20047;-78
2022/12/16 03:22:27;;;;;;;27.90;7.15;;;;;;;-0.84;74.97;99718.22;4789477;29;20524;-80
2022/12/16 03:24:55;;;;;;;60.63;10.57;;;;;;;-0.98;75.24;99695.59;4789937;29;20121;-79
2022/12/16 03:27:49;;;;;;;32.90;7.57;;;;;;;-0.88;74.54;99706.16;4773656;30;20043;-81
2022/12/16 03:30:19;;;;;;;68.20;11.80;;;;;;;-0.88;74.44;99719.78;4789023;29;20088;-80
2022/12/16 03:33:31;;;;;;;55.90;10.95;;;;;;;-0.88;74.73;99721.47;4790297;29;20050;-84
2022/12/16 03:36:14;;;;;;;80.80;16.38;;;;;;;-0.86;75.53;99722.41;4788630;29;20434;-83
2022/12/16 03:38:42;;;;;;;73.85;12.35;;;;;;;-0.87;75.79;99734.28;4773597;29;20433;-81
2022/12/16 03:41:08;;;;;;;20.05;6.55;;;;;;;-1.02;75.61;99718.41;4774157;30;20055;-81
2022/12/16 03:43:36;;;;;;;65.95;13.32;;;;;;;-1.01;75.44;99720.16;4802579;29;20099;-80
2022/12/16 03:46:05;;;;;;;80.80;16.13;;;;;;;-0.96;75.98;99732.28;4789849;29;20514;-83
2022/12/16 03:48:43;;;;;;;61.53;11.90;;;;;;;-0.95;75.22;99736.56;4773694;30;20582;-78
2022/12/16 03:51:09;;;;;;;35.38;8.70;;;;;;;-1.10;75.72;99702.81;4789476;29;20046;-78
2022/12/16 03:53:35;;;;;;;67.25;10.52;;;;;;;-1.04;75.71;99720.94;4789948;29;20185;-83
2022/12/16 03:56:01;;;;;;;83.80;13.90;;;;;;;-0.87;75.59;99752.19;4773565;30;20505;-83
2022/12/16 03:58:27;;;;;;;88.32;15.45;;;;;;;-0.88;75.66;99762.34;4789412;29;20055;-81
2022/12/16 04:01:03;;;;;;;87.97;15.88;;;;;;;-0.89;75.72;99750.41;4788263;29;20055;-84
2022/12/16 04:08:10;;;;;;;99.43;17.95;;;;;;;-2.51;75.93;99476.47;4737329;30;20062;-77
2022/12/16 04:24:29;;;;;;;72.68;11.90;;;;;;;-1.00;77.30;99785.75;4789256;29;20050;-81
2022/12/16 04:30:22;;;;;;;82.65;14.35;;;;;;;-1.02;77.06;99772.94;4790311;29;20046;-80
2022/12/16 04:34:24;;;;;;;59.30;11.40;;;;;;;-1.00;76.78;99778.09;4801335;29;20142;-80
